sensor_id;sensor_type;location;lat;lon;timestamp;temperature;humidity
9861;DHT22;4969;52.304;4.968;2023-02-28T00:01:13;12.58;64.31
9861;DHT22;4969;52.304;4.968;2023-02-28T00:03:40;12.19;64.21
9861;DHT22;4969;52.304;4.968;2023-02-28T00:06:09;12.44;62.39
9861;DHT22;4969;52.304;4.968;2023-02-28T00:08:36;12.85;65.07
9861;DHT22;4969;52.304;4.968;2023-02-28T00:11:03;12.58;63.74
9861;DHT22;4969;52.304;4.968;2023-02-28T00:13:30;11.65;65.58
9861;DHT22;4969;52.304;4.968;2023-02-28T00:16:00;12.36;66.60
9861;DHT22;4969;52.304;4.968;2023-02-28T00:18:27;12.95;63.15
9861;DHT22;4969;52.304;4.968;2023-02-28T00:20:54;12.42;62.55
9861;DHT22;4969;52.304;4.968;2023-02-28T00:23:22;12.48;65.74
9861;DHT22;4969;52.304;4.968;2023-02-28T00:25:48;13.38;64.42
9861;DHT22;4969;52.304;4.968;2023-02-28T00:28:16;12.96;61.17
9861;DHT22;4969;52.304;4.968;2023-02-28T00:30:43;12.97;63.49
9861;DHT22;4969;52.304;4.968;2023-02-28T00:33:10;12.52;64.22
9861;DHT22;4969;52.304;4.968;2023-02-28T00:35:38;12.52;64.31
9861;DHT22;4969;52.304;4.968;2023-02-28T00:38:05;12.19;55.34
9861;DHT22;4969;52.304;4.968;2023-02-28T00:40:33;12.69;63.31
9861;DHT22;4969;52.304;4.968;2023-02-28T00:43:00;11.04;57.27
9861;DHT22;4969;52.304;4.968;2023-02-28T00:45:26;11.59;64.63
9861;DHT22;4969;52.304;4.968;2023-02-28T00:47:53;11.82;65.45
9861;DHT22;4969;52.304;4.968;2023-02-28T00:50:19;11.55;59.90
9861;DHT22;4969;52.304;4.968;2023-02-28T00:52:46;11.92;59.48
9861;DHT22;4969;52.304;4.968;2023-02-28T00:55:13;10.61;63.00
9861;DHT22;4969;52.304;4.968;2023-02-28T00:57:41;10.67;69.07
9861;DHT22;4969;52.304;4.968;2023-02-28T01:00:08;11.75;66.73
9861;DHT22;4969;52.304;4.968;2023-02-28T01:02:36;12.58;65.83
9861;DHT22;4969;52.304;4.968;2023-02-28T01:05:03;12.82;63.28
9861;DHT22;4969;52.304;4.968;2023-02-28T01:07:30;13.03;63.87
9861;DHT22;4969;52.304;4.968;2023-02-28T01:09:56;12.62;63.95
9861;DHT22;4969;52.304;4.968;2023-02-28T01:12:23;12.50;64.22
9861;DHT22;4969;52.304;4.968;2023-02-28T01:14:51;13.14;63.27
9861;DHT22;4969;52.304;4.968;2023-02-28T01:17:17;12.37;64.75
9861;DHT22;4969;52.304;4.968;2023-02-28T01:19:44;12.88;63.68
9861;DHT22;4969;52.304;4.968;2023-02-28T01:22:11;12.51;63.01
9861;DHT22;4969;52.304;4.968;2023-02-28T01:24:37;13.54;63.62
9861;DHT22;4969;52.304;4.968;2023-02-28T01:27:04;13.99;61.87
9861;DHT22;4969;52.304;4.968;2023-02-28T01:29:30;13.89;59.44
9861;DHT22;4969;52.304;4.968;2023-02-28T01:31:58;13.93;62.06
9861;DHT22;4969;52.304;4.968;2023-02-28T01:34:25;14.03;61.77
9861;DHT22;4969;52.304;4.968;2023-02-28T01:36:52;14.37;61.03
9861;DHT22;4969;52.304;4.968;2023-02-28T01:39:19;14.26;60.95
9861;DHT22;4969;52.304;4.968;2023-02-28T01:41:45;14.64;60.27
9861;DHT22;4969;52.304;4.968;2023-02-28T01:54:03;14.37;59.04
9861;DHT22;4969;52.304;4.968;2023-02-28T01:56:33;14.17;60.52
9861;DHT22;4969;52.304;4.968;2023-02-28T01:59:02;14.45;60.54
9861;DHT22;4969;52.304;4.968;2023-02-28T02:01:30;14.26;60.61
9861;DHT22;4969;52.304;4.968;2023-02-28T02:03:59;14.40;60.25
9861;DHT22;4969;52.304;4.968;2023-02-28T02:06:29;14.09;60.32
9861;DHT22;4969;52.304;4.968;2023-02-28T02:08:56;13.90;61.29
9861;DHT22;4969;52.304;4.968;2023-02-28T02:11:25;14.12;61.18
9861;DHT22;4969;52.304;4.968;2023-02-28T02:14:23;14.05;58.11
9861;DHT22;4969;52.304;4.968;2023-02-28T02:17:04;13.92;58.37
9861;DHT22;4969;52.304;4.968;2023-02-28T02:25:42;14.48;59.74
9861;DHT22;4969;52.304;4.968;2023-02-28T02:28:40;14.54;57.61
9861;DHT22;4969;52.304;4.968;2023-02-28T02:31:32;14.90;57.15
9861;DHT22;4969;52.304;4.968;2023-02-28T02:34:25;15.02;57.47
9861;DHT22;4969;52.304;4.968;2023-02-28T02:37:02;15.18;57.03
9861;DHT22;4969;52.304;4.968;2023-02-28T02:39:36;15.26;57.36
9861;DHT22;4969;52.304;4.968;2023-02-28T02:42:13;15.51;56.66
9861;DHT22;4969;52.304;4.968;2023-02-28T02:44:45;15.66;56.64
9861;DHT22;4969;52.304;4.968;2023-02-28T02:47:16;15.53;56.87
9861;DHT22;4969;52.304;4.968;2023-02-28T02:49:47;15.50;56.51
9861;DHT22;4969;52.304;4.968;2023-02-28T02:52:18;15.50;56.97
9861;DHT22;4969;52.304;4.968;2023-02-28T02:54:48;15.18;55.41
9861;DHT22;4969;52.304;4.968;2023-02-28T02:57:22;14.93;58.35
9861;DHT22;4969;52.304;4.968;2023-02-28T02:59:50;14.93;58.37
9861;DHT22;4969;52.304;4.968;2023-02-28T03:02:18;15.00;57.98
9861;DHT22;4969;52.304;4.968;2023-02-28T03:04:51;14.58;56.56
9861;DHT22;4969;52.304;4.968;2023-02-28T03:07:19;14.57;59.23
9861;DHT22;4969;52.304;4.968;2023-02-28T03:09:50;14.82;56.45
9861;DHT22;4969;52.304;4.968;2023-02-28T03:12:18;15.10;58.05
9861;DHT22;4969;52.304;4.968;2023-02-28T03:14:55;15.54;55.67
9861;DHT22;4969;52.304;4.968;2023-02-28T03:17:52;15.18;58.13
9861;DHT22;4969;52.304;4.968;2023-02-28T03:20:32;14.93;55.47
9861;DHT22;4969;52.304;4.968;2023-02-28T03:23:09;15.23;56.23
9861;DHT22;4969;52.304;4.968;2023-02-28T03:25:41;15.21;57.56
9861;DHT22;4969;52.304;4.968;2023-02-28T03:28:17;15.45;53.85
9861;DHT22;4969;52.304;4.968;2023-02-28T03:30:48;15.50;56.17
9861;DHT22;4969;52.304;4.968;2023-02-28T03:33:21;15.58;55.92
9861;DHT22;4969;52.304;4.968;2023-02-28T03:35:53;15.66;55.33
9861;DHT22;4969;52.304;4.968;2023-02-28T03:38:26;15.87;55.18
9861;DHT22;4969;52.304;4.968;2023-02-28T03:41:00;15.66;54.81
9861;DHT22;4969;52.304;4.968;2023-02-28T03:43:31;14.89;51.70
9861;DHT22;4969;52.304;4.968;2023-02-28T03:46:00;14.83;57.54
9861;DHT22;4969;52.304;4.968;2023-02-28T03:48:31;15.23;52.29
9861;DHT22;4969;52.304;4.968;2023-02-28T03:51:02;14.72;56.90
9861;DHT22;4969;52.304;4.968;2023-02-28T03:53:32;14.71;56.66
9861;DHT22;4969;52.304;4.968;2023-02-28T03:56:05;14.65;58.34
9861;DHT22;4969;52.304;4.968;2023-02-28T03:58:38;14.50;57.30
9861;DHT22;4969;52.304;4.968;2023-02-28T04:01:09;14.76;57.50
9861;DHT22;4969;52.304;4.968;2023-02-28T04:03:38;13.50;57.15
9861;DHT22;4969;52.304;4.968;2023-02-28T04:06:08;13.45;55.25
9861;DHT22;4969;52.304;4.968;2023-02-28T04:08:39;13.95;59.40
9861;DHT22;4969;52.304;4.968;2023-02-28T04:11:16;13.16;47.96
9861;DHT22;4969;52.304;4.968;2023-02-28T04:13:44;13.07;61.74
9861;DHT22;4969;52.304;4.968;2023-02-28T04:16:11;14.18;59.73
9861;DHT22;4969;52.304;4.968;2023-02-28T04:18:38;14.82;57.98
9861;DHT22;4969;52.304;4.968;2023-02-28T04:21:06;14.60;57.68
9861;DHT22;4969;52.304;4.968;2023-02-28T04:23:33;14.98;57.41
9861;DHT22;4969;52.304;4.968;2023-02-28T04:25:59;15.11;57.13
9861;DHT22;4969;52.304;4.968;2023-02-28T04:28:26;14.89;56.86
9861;DHT22;4969;52.304;4.968;2023-02-28T04:30:56;15.53;55.99
9861;DHT22;4969;52.304;4.968;2023-02-28T04:33:23;15.40;54.12
9861;DHT22;4969;52.304;4.968;2023-02-28T04:35:58;15.33;54.36
9861;DHT22;4969;52.304;4.968;2023-02-28T04:38:26;15.64;55.75
9861;DHT22;4969;52.304;4.968;2023-02-28T04:40:53;15.76;55.41
9861;DHT22;4969;52.304;4.968;2023-02-28T04:43:19;15.69;55.37
9861;DHT22;4969;52.304;4.968;2023-02-28T04:45:46;15.44;55.79
9861;DHT22;4969;52.304;4.968;2023-02-28T04:48:12;15.38;55.98
9861;DHT22;4969;52.304;4.968;2023-02-28T04:50:39;15.43;56.35
9861;DHT22;4969;52.304;4.968;2023-02-28T04:53:05;15.37;55.72
9861;DHT22;4969;52.304;4.968;2023-02-28T04:55:33;15.36;56.00
9861;DHT22;4969;52.304;4.968;2023-02-28T04:58:00;15.37;56.07
9861;DHT22;4969;52.304;4.968;2023-02-28T05:00:26;15.43;56.07
9861;DHT22;4969;52.304;4.968;2023-02-28T05:02:53;15.53;55.74
9861;DHT22;4969;52.304;4.968;2023-02-28T05:05:19;15.54;55.05
9861;DHT22;4969;52.304;4.968;2023-02-28T05:07:46;15.50;55.66
9861;DHT22;4969;52.304;4.968;2023-02-28T05:10:12;15.51;55.54
9861;DHT22;4969;52.304;4.968;2023-02-28T05:12:40;15.57;55.45
9861;DHT22;4969;52.304;4.968;2023-02-28T05:15:09;15.48;55.31
9861;DHT22;4969;52.304;4.968;2023-02-28T05:17:38;15.62;55.77
9861;DHT22;4969;52.304;4.968;2023-02-28T05:20:06;15.78;53.58
9861;DHT22;4969;52.304;4.968;2023-02-28T05:22:35;15.69;55.84
9861;DHT22;4969;52.304;4.968;2023-02-28T05:25:02;15.47;55.61
9861;DHT22;4969;52.304;4.968;2023-02-28T05:27:29;15.27;56.73
9861;DHT22;4969;52.304;4.968;2023-02-28T05:29:57;15.61;55.87
9861;DHT22;4969;52.304;4.968;2023-02-28T05:32:24;15.72;52.89
9861;DHT22;4969;52.304;4.968;2023-02-28T05:34:50;15.40;55.94
9861;DHT22;4969;52.304;4.968;2023-02-28T05:37:17;14.17;51.72
9861;DHT22;4969;52.304;4.968;2023-02-28T05:39:43;13.07;52.60
9861;DHT22;4969;52.304;4.968;2023-02-28T05:42:10;12.16;55.20
9861;DHT22;4969;52.304;4.968;2023-02-28T05:44:37;11.95;59.85
9861;DHT22;4969;52.304;4.968;2023-02-28T05:47:04;12.45;60.87
9861;DHT22;4969;52.304;4.968;2023-02-28T05:49:31;12.67;57.55
9861;DHT22;4969;52.304;4.968;2023-02-28T05:51:57;13.38;60.81
9861;DHT22;4969;52.304;4.968;2023-02-28T05:54:24;13.61;60.00
9861;DHT22;4969;52.304;4.968;2023-02-28T05:56:51;13.12;59.18
9861;DHT22;4969;52.304;4.968;2023-02-28T05:59:17;13.20;60.69
9861;DHT22;4969;52.304;4.968;2023-02-28T06:01:45;11.61;58.15
9861;DHT22;4969;52.304;4.968;2023-02-28T06:04:16;12.30;62.72
9861;DHT22;4969;52.304;4.968;2023-02-28T06:06:44;11.75;54.54
9861;DHT22;4969;52.304;4.968;2023-02-28T06:09:11;11.10;62.15
9861;DHT22;4969;52.304;4.968;2023-02-28T06:11:38;11.34;61.92
9861;DHT22;4969;52.304;4.968;2023-02-28T06:14:05;11.68;60.07
9861;DHT22;4969;52.304;4.968;2023-02-28T06:16:33;12.67;64.26
9861;DHT22;4969;52.304;4.968;2023-02-28T06:19:01;13.02;61.03
9861;DHT22;4969;52.304;4.968;2023-02-28T06:21:30;12.80;63.32
9861;DHT22;4969;52.304;4.968;2023-02-28T06:23:57;13.19;55.69
9861;DHT22;4969;52.304;4.968;2023-02-28T06:26:24;11.95;56.05
9861;DHT22;4969;52.304;4.968;2023-02-28T06:28:51;12.36;65.86
9861;DHT22;4969;52.304;4.968;2023-02-28T06:31:18;12.04;58.05
9861;DHT22;4969;52.304;4.968;2023-02-28T06:33:45;12.21;63.97
9861;DHT22;4969;52.304;4.968;2023-02-28T06:36:13;13.24;62.01
9861;DHT22;4969;52.304;4.968;2023-02-28T06:38:42;12.48;52.73
9861;DHT22;4969;52.304;4.968;2023-02-28T06:41:09;11.00;55.25
9861;DHT22;4969;52.304;4.968;2023-02-28T06:43:39;10.89;58.18
9861;DHT22;4969;52.304;4.968;2023-02-28T06:46:08;11.44;65.64
9861;DHT22;4969;52.304;4.968;2023-02-28T06:48:36;11.24;62.71
9861;DHT22;4969;52.304;4.968;2023-02-28T06:51:05;11.10;61.17
9861;DHT22;4969;52.304;4.968;2023-02-28T06:53:32;11.54;63.92
9861;DHT22;4969;52.304;4.968;2023-02-28T06:56:03;10.86;55.97
9861;DHT22;4969;52.304;4.968;2023-02-28T06:58:30;10.31;60.33
9861;DHT22;4969;52.304;4.968;2023-02-28T07:00:57;11.00;67.82
9861;DHT22;4969;52.304;4.968;2023-02-28T07:03:23;11.96;64.95
9861;DHT22;4969;52.304;4.968;2023-02-28T07:05:50;12.06;59.76
9861;DHT22;4969;52.304;4.968;2023-02-28T07:08:17;11.37;63.39
9861;DHT22;4969;52.304;4.968;2023-02-28T07:10:43;12.19;65.12
9861;DHT22;4969;52.304;4.968;2023-02-28T07:13:12;12.57;64.44
9861;DHT22;4969;52.304;4.968;2023-02-28T07:15:38;10.92;58.26
9861;DHT22;4969;52.304;4.968;2023-02-28T07:18:05;9.82;57.62
9861;DHT22;4969;52.304;4.968;2023-02-28T07:20:31;9.54;60.70
9861;DHT22;4969;52.304;4.968;2023-02-28T07:22:58;8.78;61.66
9861;DHT22;4969;52.304;4.968;2023-02-28T07:25:26;8.93;66.34
9861;DHT22;4969;52.304;4.968;2023-02-28T07:27:53;8.60;61.91
9861;DHT22;4969;52.304;4.968;2023-02-28T07:30:21;8.79;64.70
9861;DHT22;4969;52.304;4.968;2023-02-28T07:32:48;9.43;66.36
9861;DHT22;4969;52.304;4.968;2023-02-28T07:35:14;9.86;66.49
9861;DHT22;4969;52.304;4.968;2023-02-28T07:37:41;9.07;60.96
9861;DHT22;4969;52.304;4.968;2023-02-28T07:40:10;8.40;65.21
9861;DHT22;4969;52.304;4.968;2023-02-28T07:42:38;9.61;68.08
9861;DHT22;4969;52.304;4.968;2023-02-28T07:45:06;9.68;67.49
9861;DHT22;4969;52.304;4.968;2023-02-28T07:47:34;9.12;61.53
9861;DHT22;4969;52.304;4.968;2023-02-28T07:50:00;8.82;61.34
9861;DHT22;4969;52.304;4.968;2023-02-28T07:52:27;9.05;69.96
9861;DHT22;4969;52.304;4.968;2023-02-28T07:54:54;8.69;65.10
9861;DHT22;4969;52.304;4.968;2023-02-28T07:57:20;7.94;64.24
9861;DHT22;4969;52.304;4.968;2023-02-28T07:59:47;7.15;63.36
9861;DHT22;4969;52.304;4.968;2023-02-28T08:02:14;6.67;65.81
9861;DHT22;4969;52.304;4.968;2023-02-28T08:04:43;5.70;67.30
9861;DHT22;4969;52.304;4.968;2023-02-28T08:07:09;5.29;69.72
9861;DHT22;4969;52.304;4.968;2023-02-28T08:09:38;5.16;71.01
9861;DHT22;4969;52.304;4.968;2023-02-28T08:12:05;5.09;71.54
9861;DHT22;4969;52.304;4.968;2023-02-28T08:14:32;5.08;71.77
9861;DHT22;4969;52.304;4.968;2023-02-28T08:16:58;5.19;72.03
9861;DHT22;4969;52.304;4.968;2023-02-28T08:19:25;5.12;72.07
9861;DHT22;4969;52.304;4.968;2023-02-28T08:21:54;5.04;72.52
9861;DHT22;4969;52.304;4.968;2023-02-28T08:24:20;4.94;73.16
9861;DHT22;4969;52.304;4.968;2023-02-28T08:26:47;4.84;73.33
9861;DHT22;4969;52.304;4.968;2023-02-28T08:29:13;4.67;73.82
9861;DHT22;4969;52.304;4.968;2023-02-28T08:31:40;4.60;74.76
9861;DHT22;4969;52.304;4.968;2023-02-28T08:34:07;4.53;74.84
9861;DHT22;4969;52.304;4.968;2023-02-28T08:36:34;4.50;74.92
9861;DHT22;4969;52.304;4.968;2023-02-28T08:39:02;4.69;75.58
9861;DHT22;4969;52.304;4.968;2023-02-28T08:41:29;4.83;75.37
9861;DHT22;4969;52.304;4.968;2023-02-28T08:43:56;4.89;75.24
9861;DHT22;4969;52.304;4.968;2023-02-28T08:46:23;4.66;75.08
9861;DHT22;4969;52.304;4.968;2023-02-28T08:48:51;4.69;75.59
9861;DHT22;4969;52.304;4.968;2023-02-28T08:51:18;4.59;75.81
9861;DHT22;4969;52.304;4.968;2023-02-28T08:53:51;4.71;76.02
9861;DHT22;4969;52.304;4.968;2023-02-28T08:56:19;4.46;76.21
9861;DHT22;4969;52.304;4.968;2023-02-28T08:58:48;4.63;76.67
9861;DHT22;4969;52.304;4.968;2023-02-28T09:01:16;4.61;76.66
9861;DHT22;4969;52.304;4.968;2023-02-28T09:03:43;4.81;76.62
9861;DHT22;4969;52.304;4.968;2023-02-28T09:06:11;4.84;76.18
9861;DHT22;4969;52.304;4.968;2023-02-28T09:08:38;5.01;76.24
9861;DHT22;4969;52.304;4.968;2023-02-28T09:11:05;4.97;75.91
9861;DHT22;4969;52.304;4.968;2023-02-28T09:13:33;5.12;76.05
9861;DHT22;4969;52.304;4.968;2023-02-28T09:16:01;5.13;75.72
9861;DHT22;4969;52.304;4.968;2023-02-28T09:18:29;5.12;75.53
9861;DHT22;4969;52.304;4.968;2023-02-28T09:20:56;5.07;75.96
9861;DHT22;4969;52.304;4.968;2023-02-28T09:23:24;5.20;76.61
9861;DHT22;4969;52.304;4.968;2023-02-28T09:25:52;5.32;76.62
9861;DHT22;4969;52.304;4.968;2023-02-28T09:28:20;5.37;76.86
9861;DHT22;4969;52.304;4.968;2023-02-28T09:30:49;5.44;76.49
9861;DHT22;4969;52.304;4.968;2023-02-28T09:33:17;5.88;80.33
9861;DHT22;4969;52.304;4.968;2023-02-28T09:35:46;6.06;76.77
9861;DHT22;4969;52.304;4.968;2023-02-28T09:38:12;5.84;75.30
9861;DHT22;4969;52.304;4.968;2023-02-28T09:40:49;5.74;75.94
9861;DHT22;4969;52.304;4.968;2023-02-28T09:43:18;5.69;75.83
9861;DHT22;4969;52.304;4.968;2023-02-28T09:45:50;6.09;76.37
9861;DHT22;4969;52.304;4.968;2023-02-28T09:48:21;6.02;74.74
9861;DHT22;4969;52.304;4.968;2023-02-28T09:50:51;7.82;78.91
9861;DHT22;4969;52.304;4.968;2023-02-28T09:53:22;8.22;75.30
9861;DHT22;4969;52.304;4.968;2023-02-28T09:55:55;7.36;69.65
9861;DHT22;4969;52.304;4.968;2023-02-28T09:58:28;7.03;72.41
9861;DHT22;4969;52.304;4.968;2023-02-28T10:01:00;6.91;70.16
9861;DHT22;4969;52.304;4.968;2023-02-28T10:03:31;8.03;76.24
9861;DHT22;4969;52.304;4.968;2023-02-28T10:06:05;10.49;72.61
9861;DHT22;4969;52.304;4.968;2023-02-28T10:08:36;10.03;70.50
9861;DHT22;4969;52.304;4.968;2023-02-28T10:11:09;11.24;72.30
9861;DHT22;4969;52.304;4.968;2023-02-28T10:13:45;10.37;64.67
9861;DHT22;4969;52.304;4.968;2023-02-28T10:16:22;10.23;66.70
9861;DHT22;4969;52.304;4.968;2023-02-28T10:18:53;10.45;72.97
9861;DHT22;4969;52.304;4.968;2023-02-28T10:21:26;10.74;68.91
9861;DHT22;4969;52.304;4.968;2023-02-28T10:24:03;11.14;69.31
9861;DHT22;4969;52.304;4.968;2023-02-28T10:26:31;12.88;67.64
9861;DHT22;4969;52.304;4.968;2023-02-28T10:28:58;13.51;65.17
9861;DHT22;4969;52.304;4.968;2023-02-28T10:31:27;13.45;65.00
9861;DHT22;4969;52.304;4.968;2023-02-28T10:33:53;11.81;58.13
9861;DHT22;4969;52.304;4.968;2023-02-28T10:36:21;12.19;64.20
9861;DHT22;4969;52.304;4.968;2023-02-28T10:38:48;13.13;65.40
9861;DHT22;4969;52.304;4.968;2023-02-28T10:41:17;11.92;59.77
9861;DHT22;4969;52.304;4.968;2023-02-28T10:43:52;10.47;57.63
9861;DHT22;4969;52.304;4.968;2023-02-28T10:46:19;9.98;64.95
9861;DHT22;4969;52.304;4.968;2023-02-28T10:49:02;10.75;66.72
9861;DHT22;4969;52.304;4.968;2023-02-28T10:51:35;10.89;68.20
9861;DHT22;4969;52.304;4.968;2023-02-28T10:54:03;12.12;64.61
9861;DHT22;4969;52.304;4.968;2023-02-28T10:56:31;13.17;60.19
9861;DHT22;4969;52.304;4.968;2023-02-28T10:59:00;11.97;54.49
9861;DHT22;4969;52.304;4.968;2023-02-28T11:01:36;12.26;63.61
9861;DHT22;4969;52.304;4.968;2023-02-28T11:04:16;11.62;55.95
9861;DHT22;4969;52.304;4.968;2023-02-28T11:06:43;11.74;65.79
9861;DHT22;4969;52.304;4.968;2023-02-28T11:09:27;11.78;63.20
9861;DHT22;4969;52.304;4.968;2023-02-28T11:11:55;12.19;63.56
9861;DHT22;4969;52.304;4.968;2023-02-28T11:14:24;13.35;63.19
9861;DHT22;4969;52.304;4.968;2023-02-28T11:16:52;13.83;59.67
9861;DHT22;4969;52.304;4.968;2023-02-28T11:19:23;14.35;60.59
9861;DHT22;4969;52.304;4.968;2023-02-28T11:21:54;14.38;58.80
9861;DHT22;4969;52.304;4.968;2023-02-28T11:24:25;13.66;53.21
9861;DHT22;4969;52.304;4.968;2023-02-28T11:26:53;14.47;57.09
9861;DHT22;4969;52.304;4.968;2023-02-28T11:29:23;15.03;57.34
9861;DHT22;4969;52.304;4.968;2023-02-28T11:32:13;14.99;56.42
9861;DHT22;4969;52.304;4.968;2023-02-28T11:34:44;13.83;46.46
9861;DHT22;4969;52.304;4.968;2023-02-28T11:37:14;12.68;47.69
9861;DHT22;4969;52.304;4.968;2023-02-28T11:39:41;13.34;60.68
9861;DHT22;4969;52.304;4.968;2023-02-28T11:42:22;13.63;53.98
9861;DHT22;4969;52.304;4.968;2023-02-28T11:47:45;12.00;55.26
9861;DHT22;4969;52.304;4.968;2023-02-28T11:50:34;10.64;45.93
9861;DHT22;4969;52.304;4.968;2023-02-28T11:53:14;11.82;60.32
9861;DHT22;4969;52.304;4.968;2023-02-28T11:55:45;9.62;43.65
9861;DHT22;4969;52.304;4.968;2023-02-28T11:58:28;9.41;47.56
9861;DHT22;4969;52.304;4.968;2023-02-28T12:01:07;11.00;53.09
9861;DHT22;4969;52.304;4.968;2023-02-28T12:03:44;13.22;60.93
9861;DHT22;4969;52.304;4.968;2023-02-28T12:06:18;10.88;41.40
9861;DHT22;4969;52.304;4.968;2023-02-28T12:09:00;8.87;45.33
9861;DHT22;4969;52.304;4.968;2023-02-28T12:11:40;9.06;48.55
9861;DHT22;4969;52.304;4.968;2023-02-28T12:14:44;9.06;44.31
9861;DHT22;4969;52.304;4.968;2023-02-28T12:17:22;11.64;48.63
9861;DHT22;4969;52.304;4.968;2023-02-28T12:19:59;9.95;53.29
9861;DHT22;4969;52.304;4.968;2023-02-28T12:22:30;10.65;46.40
9861;DHT22;4969;52.304;4.968;2023-02-28T12:25:21;12.57;56.91
9861;DHT22;4969;52.304;4.968;2023-02-28T12:27:51;12.26;47.33
9861;DHT22;4969;52.304;4.968;2023-02-28T12:30:21;10.60;42.60
9861;DHT22;4969;52.304;4.968;2023-02-28T12:32:52;11.07;51.19
9861;DHT22;4969;52.304;4.968;2023-02-28T12:35:24;13.66;59.17
9861;DHT22;4969;52.304;4.968;2023-02-28T12:37:56;11.79;48.86
9861;DHT22;4969;52.304;4.968;2023-02-28T12:40:28;14.37;45.92
9861;DHT22;4969;52.304;4.968;2023-02-28T12:43:00;14.61;56.07
9861;DHT22;4969;52.304;4.968;2023-02-28T12:45:39;13.55;42.08
9861;DHT22;4969;52.304;4.968;2023-02-28T12:48:10;11.31;42.15
9861;DHT22;4969;52.304;4.968;2023-02-28T12:50:40;10.09;42.26
9861;DHT22;4969;52.304;4.968;2023-02-28T12:53:10;8.33;44.51
9861;DHT22;4969;52.304;4.968;2023-02-28T12:55:43;9.48;50.71
9861;DHT22;4969;52.304;4.968;2023-02-28T12:58:18;8.78;60.36
9861;DHT22;4969;52.304;4.968;2023-02-28T13:01:13;8.43;57.67
9861;DHT22;4969;52.304;4.968;2023-02-28T13:03:51;9.16;45.90
9861;DHT22;4969;52.304;4.968;2023-02-28T13:06:43;9.36;53.41
9861;DHT22;4969;52.304;4.968;2023-02-28T13:09:16;9.79;51.18
9861;DHT22;4969;52.304;4.968;2023-02-28T13:11:45;8.61;46.03
9861;DHT22;4969;52.304;4.968;2023-02-28T13:14:22;8.13;48.36
9861;DHT22;4969;52.304;4.968;2023-02-28T13:16:55;8.34;48.82
9861;DHT22;4969;52.304;4.968;2023-02-28T13:19:24;9.64;52.04
9861;DHT22;4969;52.304;4.968;2023-02-28T13:21:51;11.20;51.08
9861;DHT22;4969;52.304;4.968;2023-02-28T13:24:44;9.62;46.42
9861;DHT22;4969;52.304;4.968;2023-02-28T13:27:23;7.86;46.37
9861;DHT22;4969;52.304;4.968;2023-02-28T13:29:52;8.61;50.68
9861;DHT22;4969;52.304;4.968;2023-02-28T13:32:33;9.23;46.12
9861;DHT22;4969;52.304;4.968;2023-02-28T13:35:34;8.16;53.58
9861;DHT22;4969;52.304;4.968;2023-02-28T13:38:33;7.50;50.42
9861;DHT22;4969;52.304;4.968;2023-02-28T13:44:07;7.71;52.55
9861;DHT22;4969;52.304;4.968;2023-02-28T13:46:38;7.40;50.93
9861;DHT22;4969;52.304;4.968;2023-02-28T13:49:25;7.16;51.72
9861;DHT22;4969;52.304;4.968;2023-02-28T13:52:00;7.79;51.89
9861;DHT22;4969;52.304;4.968;2023-02-28T13:54:38;6.85;53.12
9861;DHT22;4969;52.304;4.968;2023-02-28T13:57:20;6.41;55.28
9861;DHT22;4969;52.304;4.968;2023-02-28T14:00:02;6.94;57.39
9861;DHT22;4969;52.304;4.968;2023-02-28T14:02:45;6.51;54.35
9861;DHT22;4969;52.304;4.968;2023-02-28T14:05:15;6.20;55.34
9861;DHT22;4969;52.304;4.968;2023-02-28T14:07:47;6.29;55.47
9861;DHT22;4969;52.304;4.968;2023-02-28T14:10:26;6.22;54.70
9861;DHT22;4969;52.304;4.968;2023-02-28T14:12:56;6.25;56.28
9861;DHT22;4969;52.304;4.968;2023-02-28T14:15:40;6.10;56.79
9861;DHT22;4969;52.304;4.968;2023-02-28T14:18:16;6.01;57.86
9861;DHT22;4969;52.304;4.968;2023-02-28T14:20:46;6.87;55.10
9861;DHT22;4969;52.304;4.968;2023-02-28T14:23:19;6.22;56.91
9861;DHT22;4969;52.304;4.968;2023-02-28T14:25:57;7.52;64.19
9861;DHT22;4969;52.304;4.968;2023-02-28T14:28:46;7.30;55.67
9861;DHT22;4969;52.304;4.968;2023-02-28T14:31:23;6.88;54.75
9861;DHT22;4969;52.304;4.968;2023-02-28T14:34:12;6.71;55.86
9861;DHT22;4969;52.304;4.968;2023-02-28T14:36:42;7.06;55.65
9861;DHT22;4969;52.304;4.968;2023-02-28T14:39:13;6.40;58.20
9861;DHT22;4969;52.304;4.968;2023-02-28T14:41:43;6.03;60.06
9861;DHT22;4969;52.304;4.968;2023-02-28T14:44:16;5.99;60.34
9861;DHT22;4969;52.304;4.968;2023-02-28T14:46:45;5.84;59.67
9861;DHT22;4969;52.304;4.968;2023-02-28T14:49:18;5.84;60.11
9861;DHT22;4969;52.304;4.968;2023-02-28T14:51:45;5.81;59.94
9861;DHT22;4969;52.304;4.968;2023-02-28T14:54:14;5.91;59.72
9861;DHT22;4969;52.304;4.968;2023-02-28T14:56:41;5.92;59.77
9861;DHT22;4969;52.304;4.968;2023-02-28T14:59:24;6.33;59.51
9861;DHT22;4969;52.304;4.968;2023-02-28T15:02:07;6.51;64.04
9861;DHT22;4969;52.304;4.968;2023-02-28T15:04:33;6.19;59.24
9861;DHT22;4969;52.304;4.968;2023-02-28T15:07:10;6.18;58.51
9861;DHT22;4969;52.304;4.968;2023-02-28T15:09:37;5.82;59.30
9861;DHT22;4969;52.304;4.968;2023-02-28T15:12:04;5.92;59.19
9861;DHT22;4969;52.304;4.968;2023-02-28T15:14:31;5.94;59.13
9861;DHT22;4969;52.304;4.968;2023-02-28T15:17:01;5.90;59.29
9861;DHT22;4969;52.304;4.968;2023-02-28T15:19:34;7.03;60.55
9861;DHT22;4969;52.304;4.968;2023-02-28T15:22:04;6.22;58.44
9861;DHT22;4969;52.304;4.968;2023-02-28T15:24:37;6.41;61.51
9861;DHT22;4969;52.304;4.968;2023-02-28T15:27:06;6.47;57.32
9861;DHT22;4969;52.304;4.968;2023-02-28T15:29:42;5.77;57.86
9861;DHT22;4969;52.304;4.968;2023-02-28T15:32:24;6.30;62.43
9861;DHT22;4969;52.304;4.968;2023-02-28T15:34:51;6.16;56.83
9861;DHT22;4969;52.304;4.968;2023-02-28T15:37:29;6.15;56.44
9861;DHT22;4969;52.304;4.968;2023-02-28T15:39:58;5.95;58.05
9861;DHT22;4969;52.304;4.968;2023-02-28T15:42:30;5.82;58.37
9861;DHT22;4969;52.304;4.968;2023-02-28T15:44:57;5.87;58.20
9861;DHT22;4969;52.304;4.968;2023-02-28T15:47:27;5.88;57.18
9861;DHT22;4969;52.304;4.968;2023-02-28T15:49:58;6.40;59.42
9861;DHT22;4969;52.304;4.968;2023-02-28T15:52:29;6.68;56.69
9861;DHT22;4969;52.304;4.968;2023-02-28T15:55:08;6.33;57.62
9861;DHT22;4969;52.304;4.968;2023-02-28T15:57:35;6.41;61.59
9861;DHT22;4969;52.304;4.968;2023-02-28T16:00:03;5.90;59.01
9861;DHT22;4969;52.304;4.968;2023-02-28T16:02:33;5.82;60.09
9861;DHT22;4969;52.304;4.968;2023-02-28T16:05:18;5.78;60.03
9861;DHT22;4969;52.304;4.968;2023-02-28T16:07:45;5.69;59.49
9861;DHT22;4969;52.304;4.968;2023-02-28T16:10:14;5.57;60.34
9861;DHT22;4969;52.304;4.968;2023-02-28T16:12:41;5.64;60.92
9861;DHT22;4969;52.304;4.968;2023-02-28T16:15:17;5.73;61.03
9861;DHT22;4969;52.304;4.968;2023-02-28T16:17:45;5.69;60.14
9861;DHT22;4969;52.304;4.968;2023-02-28T16:20:13;5.81;60.45
9861;DHT22;4969;52.304;4.968;2023-02-28T16:22:40;5.75;59.15
9861;DHT22;4969;52.304;4.968;2023-02-28T16:25:10;5.82;60.01
9861;DHT22;4969;52.304;4.968;2023-02-28T16:27:37;5.90;59.58
9861;DHT22;4969;52.304;4.968;2023-02-28T16:30:06;6.03;61.06
9861;DHT22;4969;52.304;4.968;2023-02-28T16:32:35;6.15;60.47
9861;DHT22;4969;52.304;4.968;2023-02-28T16:35:05;5.92;59.28
9861;DHT22;4969;52.304;4.968;2023-02-28T16:37:32;6.63;66.22
9861;DHT22;4969;52.304;4.968;2023-02-28T16:39:58;6.57;59.59
9861;DHT22;4969;52.304;4.968;2023-02-28T16:42:27;6.09;58.77
9861;DHT22;4969;52.304;4.968;2023-02-28T16:44:55;6.12;58.85
9861;DHT22;4969;52.304;4.968;2023-02-28T16:47:23;7.01;64.42
9861;DHT22;4969;52.304;4.968;2023-02-28T16:49:51;6.53;58.18
9861;DHT22;4969;52.304;4.968;2023-02-28T16:52:19;6.28;59.97
9861;DHT22;4969;52.304;4.968;2023-02-28T16:54:46;6.23;59.75